<?xml version="1.0" encoding="UTF-8" standalone="no" ?>
<gpx xmlns="http://www.topografix.com/GPX/1/1" xmlns:xsi="http://www.w3.org/2001/XMLSchema-instance" xsi:schemaLocation="http://www.topografix.com/GPX/1/1 http://www.topografix.com/GPX/1/1/gpx.xsd" version="1.1" creator="VisuGPX - https://www.visugpx.com">
  <metadata>
    <name>Circuit du 08-04-2013</name>
    <desc><![CDATA[Circuit du 08-04-2013]]></desc>
  </metadata>
  <wpt lat="45.38373" lon="3.75143">
    <ele>654.59997558594</ele>
    <name><![CDATA[Start]]></name>
  </wpt>
  <wpt lat="45.38772" lon="3.75907">
    <ele>667.59997558594</ele>
    <name><![CDATA[Pause]]></name>
  </wpt>
  <wpt lat="45.38817" lon="3.75906">
    <ele>650.79998779297</ele>
    <name><![CDATA[Resume]]></name>
  </wpt>
  <wpt lat="45.38895" lon="3.75916">
    <ele>656.90002441406</ele>
    <name><![CDATA[Pause]]></name>
  </wpt>
  <wpt lat="45.38955" lon="3.75915">
    <ele>661</ele>
    <name><![CDATA[Resume]]></name>
  </wpt>
  <wpt lat="45.38385" lon="3.75159">
    <ele>654.79998779297</ele>
    <name><![CDATA[End]]></name>
  </wpt>
  <trk>
    <name><![CDATA[Circuit du 08-04-2013_1]]></name>
    <trkseg>
      <trkpt lat="45.38373" lon="3.75143">
        <ele>654.59997558594</ele>
        <time>2013-04-08T16:31:46Z</time>
      </trkpt>
      <trkpt lat="45.38375" lon="3.75137">
        <ele>657.5</ele>
        <time>2013-04-08T16:31:49Z</time>
      </trkpt>
      <trkpt lat="45.38377" lon="3.75145">
        <ele>656.5</ele>
        <time>2013-04-08T16:31:54Z</time>
      </trkpt>
      <trkpt lat="45.38379" lon="3.75152">
        <ele>657.70001220703</ele>
        <time>2013-04-08T16:31:57Z</time>
      </trkpt>
      <trkpt lat="45.38385" lon="3.75159">
        <ele>657.09997558594</ele>
        <time>2013-04-08T16:32:04Z</time>
      </trkpt>
      <trkpt lat="45.38387" lon="3.75165">
        <ele>657.90002441406</ele>
        <time>2013-04-08T16:32:14Z</time>
      </trkpt>
      <trkpt lat="45.38391" lon="3.75176">
        <ele>660.90002441406</ele>
        <time>2013-04-08T16:32:19Z</time>
      </trkpt>
      <trkpt lat="45.38399" lon="3.75187">
        <ele>660.40002441406</ele>
        <time>2013-04-08T16:32:21Z</time>
      </trkpt>
      <trkpt lat="45.38406" lon="3.75198">
        <ele>661.59997558594</ele>
        <time>2013-04-08T16:32:24Z</time>
      </trkpt>
      <trkpt lat="45.38406" lon="3.75207">
        <ele>662.20001220703</ele>
        <time>2013-04-08T16:32:26Z</time>
      </trkpt>
      <trkpt lat="45.38407" lon="3.75218">
        <ele>660.5</ele>
        <time>2013-04-08T16:32:29Z</time>
      </trkpt>
      <trkpt lat="45.38408" lon="3.75225">
        <ele>660.59997558594</ele>
        <time>2013-04-08T16:32:32Z</time>
      </trkpt>
      <trkpt lat="45.38409" lon="3.75235">
        <ele>659.70001220703</ele>
        <time>2013-04-08T16:32:35Z</time>
      </trkpt>
      <trkpt lat="45.38411" lon="3.75243">
        <ele>657.5</ele>
        <time>2013-04-08T16:32:38Z</time>
      </trkpt>
      <trkpt lat="45.38414" lon="3.75249">
        <ele>658.40002441406</ele>
        <time>2013-04-08T16:32:40Z</time>
      </trkpt>
      <trkpt lat="45.38411" lon="3.75259">
        <ele>658.70001220703</ele>
        <time>2013-04-08T16:32:44Z</time>
      </trkpt>
      <trkpt lat="45.38414" lon="3.75265">
        <ele>658.59997558594</ele>
        <time>2013-04-08T16:32:46Z</time>
      </trkpt>
      <trkpt lat="45.38419" lon="3.75271">
        <ele>655.59997558594</ele>
        <time>2013-04-08T16:32:51Z</time>
      </trkpt>
      <trkpt lat="45.38424" lon="3.75283">
        <ele>658.79998779297</ele>
        <time>2013-04-08T16:33:10Z</time>
      </trkpt>
      <trkpt lat="45.38426" lon="3.75292">
        <ele>659.09997558594</ele>
        <time>2013-04-08T16:33:12Z</time>
      </trkpt>
      <trkpt lat="45.38426" lon="3.75298">
        <ele>660</ele>
        <time>2013-04-08T16:33:14Z</time>
      </trkpt>
      <trkpt lat="45.38426" lon="3.75307">
        <ele>658</ele>
        <time>2013-04-08T16:33:18Z</time>
      </trkpt>
      <trkpt lat="45.38424" lon="3.75318">
        <ele>658.09997558594</ele>
        <time>2013-04-08T16:33:22Z</time>
      </trkpt>
      <trkpt lat="45.38428" lon="3.75322">
        <ele>660</ele>
        <time>2013-04-08T16:33:34Z</time>
      </trkpt>
      <trkpt lat="45.38431" lon="3.75333">
        <ele>657.79998779297</ele>
        <time>2013-04-08T16:33:43Z</time>
      </trkpt>
      <trkpt lat="45.38434" lon="3.75338">
        <ele>656</ele>
        <time>2013-04-08T16:33:45Z</time>
      </trkpt>
      <trkpt lat="45.38438" lon="3.75347">
        <ele>656</ele>
        <time>2013-04-08T16:33:48Z</time>
      </trkpt>
      <trkpt lat="45.3844" lon="3.75353">
        <ele>653.40002441406</ele>
        <time>2013-04-08T16:33:50Z</time>
      </trkpt>
      <trkpt lat="45.38441" lon="3.75364">
        <ele>649.90002441406</ele>
        <time>2013-04-08T16:34:12Z</time>
      </trkpt>
      <trkpt lat="45.38443" lon="3.75367">
        <ele>651.63598632812</ele>
        <time>2013-04-08T16:34:13Z</time>
      </trkpt>
      <trkpt lat="45.38449" lon="3.75379">
        <ele>649.70001220703</ele>
        <time>2013-04-08T16:34:15Z</time>
      </trkpt>
      <trkpt lat="45.38451" lon="3.75386">
        <ele>648.40002441406</ele>
        <time>2013-04-08T16:34:18Z</time>
      </trkpt>
      <trkpt lat="45.38451" lon="3.75393">
        <ele>650.79998779297</ele>
        <time>2013-04-08T16:34:20Z</time>
      </trkpt>
      <trkpt lat="45.38453" lon="3.75399">
        <ele>653.59997558594</ele>
        <time>2013-04-08T16:34:24Z</time>
      </trkpt>
      <trkpt lat="45.38455" lon="3.75405">
        <ele>653</ele>
        <time>2013-04-08T16:34:26Z</time>
      </trkpt>
      <trkpt lat="45.38459" lon="3.75417">
        <ele>655.20001220703</ele>
        <time>2013-04-08T16:34:32Z</time>
      </trkpt>
      <trkpt lat="45.38461" lon="3.75424">
        <ele>656</ele>
        <time>2013-04-08T16:34:36Z</time>
      </trkpt>
      <trkpt lat="45.38469" lon="3.7544">
        <ele>658.20001220703</ele>
        <time>2013-04-08T16:34:44Z</time>
      </trkpt>
      <trkpt lat="45.38471" lon="3.75447">
        <ele>658</ele>
        <time>2013-04-08T16:34:47Z</time>
      </trkpt>
      <trkpt lat="45.38471" lon="3.7546">
        <ele>657.70001220703</ele>
        <time>2013-04-08T16:34:53Z</time>
      </trkpt>
      <trkpt lat="45.38473" lon="3.75467">
        <ele>658.09997558594</ele>
        <time>2013-04-08T16:34:56Z</time>
      </trkpt>
      <trkpt lat="45.38476" lon="3.75475">
        <ele>658.40002441406</ele>
        <time>2013-04-08T16:35:00Z</time>
      </trkpt>
      <trkpt lat="45.38477" lon="3.75482">
        <ele>660.40002441406</ele>
        <time>2013-04-08T16:35:03Z</time>
      </trkpt>
      <trkpt lat="45.3848" lon="3.75505">
        <ele>656.70001220703</ele>
        <time>2013-04-08T16:35:10Z</time>
      </trkpt>
      <trkpt lat="45.38482" lon="3.75515">
        <ele>658.09997558594</ele>
        <time>2013-04-08T16:35:13Z</time>
      </trkpt>
      <trkpt lat="45.38486" lon="3.75519">
        <ele>657.91943359375</ele>
        <time>2013-04-08T16:35:14Z</time>
      </trkpt>
      <trkpt lat="45.38487" lon="3.75527">
        <ele>657.09997558594</ele>
        <time>2013-04-08T16:35:19Z</time>
      </trkpt>
      <trkpt lat="45.38488" lon="3.75534">
        <ele>654.90002441406</ele>
        <time>2013-04-08T16:35:21Z</time>
      </trkpt>
      <trkpt lat="45.38492" lon="3.75538">
        <ele>652.79998779297</ele>
        <time>2013-04-08T16:35:25Z</time>
      </trkpt>
      <trkpt lat="45.38492" lon="3.75551">
        <ele>652.79998779297</ele>
        <time>2013-04-08T16:35:28Z</time>
      </trkpt>
      <trkpt lat="45.38496" lon="3.75555">
        <ele>651.20001220703</ele>
        <time>2013-04-08T16:35:31Z</time>
      </trkpt>
      <trkpt lat="45.38498" lon="3.75562">
        <ele>653.79998779297</ele>
        <time>2013-04-08T16:35:34Z</time>
      </trkpt>
      <trkpt lat="45.385" lon="3.75569">
        <ele>654</ele>
        <time>2013-04-08T16:35:39Z</time>
      </trkpt>
      <trkpt lat="45.385" lon="3.75577">
        <ele>653.09997558594</ele>
        <time>2013-04-08T16:35:47Z</time>
      </trkpt>
      <trkpt lat="45.38501" lon="3.75585">
        <ele>653.29998779297</ele>
        <time>2013-04-08T16:35:52Z</time>
      </trkpt>
      <trkpt lat="45.38504" lon="3.75593">
        <ele>656.20001220703</ele>
        <time>2013-04-08T16:35:55Z</time>
      </trkpt>
      <trkpt lat="45.38504" lon="3.75599">
        <ele>657</ele>
        <time>2013-04-08T16:35:57Z</time>
      </trkpt>
      <trkpt lat="45.38504" lon="3.75606">
        <ele>654.79998779297</ele>
        <time>2013-04-08T16:36:02Z</time>
      </trkpt>
      <trkpt lat="45.38507" lon="3.75614">
        <ele>652</ele>
        <time>2013-04-08T16:36:06Z</time>
      </trkpt>
      <trkpt lat="45.38511" lon="3.75619">
        <ele>651.79998779297</ele>
        <time>2013-04-08T16:36:09Z</time>
      </trkpt>
      <trkpt lat="45.38515" lon="3.75623">
        <ele>656.59997558594</ele>
        <time>2013-04-08T16:36:13Z</time>
      </trkpt>
      <trkpt lat="45.38511" lon="3.75629">
        <ele>658.79998779297</ele>
        <time>2013-04-08T16:36:18Z</time>
      </trkpt>
      <trkpt lat="45.38514" lon="3.75636">
        <ele>654.29998779297</ele>
        <time>2013-04-08T16:36:21Z</time>
      </trkpt>
      <trkpt lat="45.38516" lon="3.75642">
        <ele>653.5</ele>
        <time>2013-04-08T16:36:24Z</time>
      </trkpt>
      <trkpt lat="45.3851" lon="3.75642">
        <ele>651.40002441406</ele>
        <time>2013-04-08T16:36:31Z</time>
      </trkpt>
      <trkpt lat="45.38511" lon="3.75648">
        <ele>652.25921630859</ele>
        <time>2013-04-08T16:36:32Z</time>
      </trkpt>
      <trkpt lat="45.3851" lon="3.75657">
        <ele>655.20001220703</ele>
        <time>2013-04-08T16:36:37Z</time>
      </trkpt>
      <trkpt lat="45.38514" lon="3.75663">
        <ele>652.5</ele>
        <time>2013-04-08T16:36:42Z</time>
      </trkpt>
      <trkpt lat="45.38518" lon="3.75667">
        <ele>649.40002441406</ele>
        <time>2013-04-08T16:36:46Z</time>
      </trkpt>
      <trkpt lat="45.38523" lon="3.7567">
        <ele>648.90002441406</ele>
        <time>2013-04-08T16:36:51Z</time>
      </trkpt>
      <trkpt lat="45.38527" lon="3.75675">
        <ele>655.5</ele>
        <time>2013-04-08T16:36:57Z</time>
      </trkpt>
      <trkpt lat="45.38532" lon="3.75676">
        <ele>656.29998779297</ele>
        <time>2013-04-08T16:37:00Z</time>
      </trkpt>
      <trkpt lat="45.38546" lon="3.75675">
        <ele>659.29998779297</ele>
        <time>2013-04-08T16:37:11Z</time>
      </trkpt>
      <trkpt lat="45.38551" lon="3.75674">
        <ele>659</ele>
        <time>2013-04-08T16:37:14Z</time>
      </trkpt>
      <trkpt lat="45.38555" lon="3.75668">
        <ele>656.79998779297</ele>
        <time>2013-04-08T16:37:19Z</time>
      </trkpt>
      <trkpt lat="45.3856" lon="3.75673">
        <ele>655.29998779297</ele>
        <time>2013-04-08T16:37:25Z</time>
      </trkpt>
      <trkpt lat="45.38571" lon="3.75671">
        <ele>653.90002441406</ele>
        <time>2013-04-08T16:37:35Z</time>
      </trkpt>
      <trkpt lat="45.38578" lon="3.75674">
        <ele>655.79998779297</ele>
        <time>2013-04-08T16:37:37Z</time>
      </trkpt>
      <trkpt lat="45.38584" lon="3.75675">
        <ele>655.90002441406</ele>
        <time>2013-04-08T16:37:42Z</time>
      </trkpt>
      <trkpt lat="45.386" lon="3.75696">
        <ele>654.20001220703</ele>
        <time>2013-04-08T16:37:55Z</time>
      </trkpt>
      <trkpt lat="45.38606" lon="3.75701">
        <ele>655.79998779297</ele>
        <time>2013-04-08T16:37:59Z</time>
      </trkpt>
      <trkpt lat="45.38607" lon="3.75708">
        <ele>655.5</ele>
        <time>2013-04-08T16:38:02Z</time>
      </trkpt>
      <trkpt lat="45.38612" lon="3.75712">
        <ele>657.20001220703</ele>
        <time>2013-04-08T16:38:04Z</time>
      </trkpt>
      <trkpt lat="45.38619" lon="3.75721">
        <ele>655.70001220703</ele>
        <time>2013-04-08T16:38:10Z</time>
      </trkpt>
      <trkpt lat="45.38626" lon="3.75726">
        <ele>654.90002441406</ele>
        <time>2013-04-08T16:38:12Z</time>
      </trkpt>
      <trkpt lat="45.3863" lon="3.75731">
        <ele>657.09997558594</ele>
        <time>2013-04-08T16:38:15Z</time>
      </trkpt>
      <trkpt lat="45.38635" lon="3.75733">
        <ele>659.40002441406</ele>
        <time>2013-04-08T16:38:18Z</time>
      </trkpt>
      <trkpt lat="45.38638" lon="3.75743">
        <ele>659.70001220703</ele>
        <time>2013-04-08T16:38:24Z</time>
      </trkpt>
      <trkpt lat="45.38654" lon="3.75756">
        <ele>661.5</ele>
        <time>2013-04-08T16:38:35Z</time>
      </trkpt>
      <trkpt lat="45.38658" lon="3.75761">
        <ele>663.70001220703</ele>
        <time>2013-04-08T16:38:38Z</time>
      </trkpt>
      <trkpt lat="45.38661" lon="3.75766">
        <ele>662.20001220703</ele>
        <time>2013-04-08T16:38:43Z</time>
      </trkpt>
      <trkpt lat="45.38665" lon="3.75772">
        <ele>660.59997558594</ele>
        <time>2013-04-08T16:38:47Z</time>
      </trkpt>
      <trkpt lat="45.3867" lon="3.75775">
        <ele>662.29998779297</ele>
        <time>2013-04-08T16:38:49Z</time>
      </trkpt>
      <trkpt lat="45.38671" lon="3.75784">
        <ele>663.5</ele>
        <time>2013-04-08T16:38:55Z</time>
      </trkpt>
      <trkpt lat="45.38683" lon="3.75791">
        <ele>661.79998779297</ele>
        <time>2013-04-08T16:39:09Z</time>
      </trkpt>
      <trkpt lat="45.38689" lon="3.75802">
        <ele>657.70001220703</ele>
        <time>2013-04-08T16:39:15Z</time>
      </trkpt>
      <trkpt lat="45.38693" lon="3.75807">
        <ele>660.20001220703</ele>
        <time>2013-04-08T16:39:19Z</time>
      </trkpt>
      <trkpt lat="45.38698" lon="3.75811">
        <ele>659.90002441406</ele>
        <time>2013-04-08T16:39:23Z</time>
      </trkpt>
      <trkpt lat="45.38703" lon="3.75818">
        <ele>662.40002441406</ele>
        <time>2013-04-08T16:39:30Z</time>
      </trkpt>
      <trkpt lat="45.38709" lon="3.75827">
        <ele>661.90002441406</ele>
        <time>2013-04-08T16:39:37Z</time>
      </trkpt>
      <trkpt lat="45.38716" lon="3.75832">
        <ele>659.40002441406</ele>
        <time>2013-04-08T16:39:41Z</time>
      </trkpt>
      <trkpt lat="45.38718" lon="3.75839">
        <ele>662.09997558594</ele>
        <time>2013-04-08T16:39:48Z</time>
      </trkpt>
      <trkpt lat="45.38723" lon="3.75841">
        <ele>658.59997558594</ele>
        <time>2013-04-08T16:39:53Z</time>
      </trkpt>
      <trkpt lat="45.38725" lon="3.75847">
        <ele>660</ele>
        <time>2013-04-08T16:39:58Z</time>
      </trkpt>
      <trkpt lat="45.38728" lon="3.75853">
        <ele>657.20001220703</ele>
        <time>2013-04-08T16:40:04Z</time>
      </trkpt>
      <trkpt lat="45.38732" lon="3.75857">
        <ele>658.59997558594</ele>
        <time>2013-04-08T16:40:07Z</time>
      </trkpt>
      <trkpt lat="45.38736" lon="3.75862">
        <ele>660.40002441406</ele>
        <time>2013-04-08T16:40:11Z</time>
      </trkpt>
      <trkpt lat="45.3874" lon="3.75867">
        <ele>662.59997558594</ele>
        <time>2013-04-08T16:40:15Z</time>
      </trkpt>
      <trkpt lat="45.38743" lon="3.75871">
        <ele>661.90002441406</ele>
        <time>2013-04-08T16:40:19Z</time>
      </trkpt>
      <trkpt lat="45.38743" lon="3.75878">
        <ele>663.20001220703</ele>
        <time>2013-04-08T16:40:22Z</time>
      </trkpt>
      <trkpt lat="45.38748" lon="3.75881">
        <ele>663.29998779297</ele>
        <time>2013-04-08T16:40:26Z</time>
      </trkpt>
      <trkpt lat="45.38753" lon="3.75885">
        <ele>663.90002441406</ele>
        <time>2013-04-08T16:40:33Z</time>
      </trkpt>
      <trkpt lat="45.38755" lon="3.75891">
        <ele>666.20001220703</ele>
        <time>2013-04-08T16:40:36Z</time>
      </trkpt>
      <trkpt lat="45.38767" lon="3.75904">
        <ele>668</ele>
        <time>2013-04-08T16:40:46Z</time>
      </trkpt>
      <trkpt lat="45.38772" lon="3.75907">
        <ele>667.59997558594</ele>
        <time>2013-04-08T16:40:48Z</time>
      </trkpt>
      <trkpt lat="45.38817" lon="3.75906">
        <ele>650.79998779297</ele>
        <time>2013-04-08T16:41:09Z</time>
      </trkpt>
      <trkpt lat="45.38823" lon="3.75905">
        <ele>649.70001220703</ele>
        <time>2013-04-08T16:41:11Z</time>
      </trkpt>
      <trkpt lat="45.38831" lon="3.75908">
        <ele>651</ele>
        <time>2013-04-08T16:41:13Z</time>
      </trkpt>
      <trkpt lat="45.38835" lon="3.75911">
        <ele>653.29998779297</ele>
        <time>2013-04-08T16:41:17Z</time>
      </trkpt>
      <trkpt lat="45.38834" lon="3.75917">
        <ele>654</ele>
        <time>2013-04-08T16:41:21Z</time>
      </trkpt>
      <trkpt lat="45.3884" lon="3.75916">
        <ele>655.79998779297</ele>
        <time>2013-04-08T16:41:22Z</time>
      </trkpt>
      <trkpt lat="45.38844" lon="3.75915">
        <ele>656.5</ele>
        <time>2013-04-08T16:41:24Z</time>
      </trkpt>
      <trkpt lat="45.38846" lon="3.75923">
        <ele>659.59997558594</ele>
        <time>2013-04-08T16:41:26Z</time>
      </trkpt>
      <trkpt lat="45.3885" lon="3.75918">
        <ele>658.70001220703</ele>
        <time>2013-04-08T16:41:29Z</time>
      </trkpt>
      <trkpt lat="45.38855" lon="3.75918">
        <ele>659.20001220703</ele>
        <time>2013-04-08T16:41:31Z</time>
      </trkpt>
      <trkpt lat="45.3886" lon="3.75919">
        <ele>660.70001220703</ele>
        <time>2013-04-08T16:41:35Z</time>
      </trkpt>
      <trkpt lat="45.38868" lon="3.75916">
        <ele>656.59997558594</ele>
        <time>2013-04-08T16:41:39Z</time>
      </trkpt>
      <trkpt lat="45.38872" lon="3.75916">
        <ele>658</ele>
        <time>2013-04-08T16:41:42Z</time>
      </trkpt>
      <trkpt lat="45.3888" lon="3.75914">
        <ele>660.29998779297</ele>
        <time>2013-04-08T16:41:47Z</time>
      </trkpt>
      <trkpt lat="45.38886" lon="3.75916">
        <ele>660.79998779297</ele>
        <time>2013-04-08T16:41:52Z</time>
      </trkpt>
      <trkpt lat="45.38895" lon="3.75916">
        <ele>656.90002441406</ele>
        <time>2013-04-08T16:41:56Z</time>
      </trkpt>
      <trkpt lat="45.38955" lon="3.75915">
        <ele>661</ele>
        <time>2013-04-08T16:42:50Z</time>
      </trkpt>
      <trkpt lat="45.38961" lon="3.75918">
        <ele>659.29998779297</ele>
        <time>2013-04-08T16:42:53Z</time>
      </trkpt>
      <trkpt lat="45.38966" lon="3.75919">
        <ele>658.29998779297</ele>
        <time>2013-04-08T16:42:58Z</time>
      </trkpt>
      <trkpt lat="45.38972" lon="3.75921">
        <ele>656.40002441406</ele>
        <time>2013-04-08T16:43:04Z</time>
      </trkpt>
      <trkpt lat="45.38978" lon="3.75923">
        <ele>657.20001220703</ele>
        <time>2013-04-08T16:43:12Z</time>
      </trkpt>
      <trkpt lat="45.38985" lon="3.75928">
        <ele>656.59997558594</ele>
        <time>2013-04-08T16:43:21Z</time>
      </trkpt>
      <trkpt lat="45.38991" lon="3.75931">
        <ele>654.40002441406</ele>
        <time>2013-04-08T16:43:24Z</time>
      </trkpt>
      <trkpt lat="45.38998" lon="3.75936">
        <ele>654</ele>
        <time>2013-04-08T16:43:32Z</time>
      </trkpt>
      <trkpt lat="45.39003" lon="3.75934">
        <ele>656</ele>
        <time>2013-04-08T16:43:35Z</time>
      </trkpt>
      <trkpt lat="45.39007" lon="3.75938">
        <ele>658</ele>
        <time>2013-04-08T16:43:38Z</time>
      </trkpt>
      <trkpt lat="45.39012" lon="3.75938">
        <ele>658.79998779297</ele>
        <time>2013-04-08T16:43:44Z</time>
      </trkpt>
      <trkpt lat="45.39018" lon="3.75941">
        <ele>659.79998779297</ele>
        <time>2013-04-08T16:43:48Z</time>
      </trkpt>
      <trkpt lat="45.39024" lon="3.75941">
        <ele>659.40002441406</ele>
        <time>2013-04-08T16:43:54Z</time>
      </trkpt>
      <trkpt lat="45.39029" lon="3.75946">
        <ele>656.29998779297</ele>
        <time>2013-04-08T16:43:58Z</time>
      </trkpt>
      <trkpt lat="45.39034" lon="3.75947">
        <ele>656.29998779297</ele>
        <time>2013-04-08T16:44:01Z</time>
      </trkpt>
      <trkpt lat="45.39043" lon="3.75952">
        <ele>650.70001220703</ele>
        <time>2013-04-08T16:44:09Z</time>
      </trkpt>
      <trkpt lat="45.3905" lon="3.75955">
        <ele>651.09997558594</ele>
        <time>2013-04-08T16:44:13Z</time>
      </trkpt>
      <trkpt lat="45.39055" lon="3.75954">
        <ele>650</ele>
        <time>2013-04-08T16:44:17Z</time>
      </trkpt>
      <trkpt lat="45.39059" lon="3.75964">
        <ele>649.70001220703</ele>
        <time>2013-04-08T16:44:24Z</time>
      </trkpt>
      <trkpt lat="45.39061" lon="3.75971">
        <ele>649.09997558594</ele>
        <time>2013-04-08T16:44:30Z</time>
      </trkpt>
      <trkpt lat="45.3907" lon="3.75964">
        <ele>648.09997558594</ele>
        <time>2013-04-08T16:44:35Z</time>
      </trkpt>
      <trkpt lat="45.39077" lon="3.7596">
        <ele>649.40002441406</ele>
        <time>2013-04-08T16:44:38Z</time>
      </trkpt>
      <trkpt lat="45.39055" lon="3.7595">
        <ele>648.20001220703</ele>
        <time>2013-04-08T16:44:54Z</time>
      </trkpt>
      <trkpt lat="45.39049" lon="3.75948">
        <ele>647.29998779297</ele>
        <time>2013-04-08T16:44:56Z</time>
      </trkpt>
      <trkpt lat="45.39045" lon="3.75945">
        <ele>649</ele>
        <time>2013-04-08T16:44:58Z</time>
      </trkpt>
      <trkpt lat="45.3904" lon="3.75944">
        <ele>649.90002441406</ele>
        <time>2013-04-08T16:45:01Z</time>
      </trkpt>
      <trkpt lat="45.39035" lon="3.75944">
        <ele>650.79998779297</ele>
        <time>2013-04-08T16:45:03Z</time>
      </trkpt>
      <trkpt lat="45.39029" lon="3.75943">
        <ele>652.20001220703</ele>
        <time>2013-04-08T16:45:04Z</time>
      </trkpt>
      <trkpt lat="45.39024" lon="3.75941">
        <ele>652.20001220703</ele>
        <time>2013-04-08T16:45:06Z</time>
      </trkpt>
      <trkpt lat="45.39019" lon="3.75936">
        <ele>650.79998779297</ele>
        <time>2013-04-08T16:45:08Z</time>
      </trkpt>
      <trkpt lat="45.39016" lon="3.75932">
        <ele>653</ele>
        <time>2013-04-08T16:45:13Z</time>
      </trkpt>
      <trkpt lat="45.39009" lon="3.75933">
        <ele>655.40002441406</ele>
        <time>2013-04-08T16:45:16Z</time>
      </trkpt>
      <trkpt lat="45.39004" lon="3.75933">
        <ele>655.20001220703</ele>
        <time>2013-04-08T16:45:21Z</time>
      </trkpt>
      <trkpt lat="45.38993" lon="3.75932">
        <ele>655.5</ele>
        <time>2013-04-08T16:45:26Z</time>
      </trkpt>
      <trkpt lat="45.38982" lon="3.75922">
        <ele>656.09997558594</ele>
        <time>2013-04-08T16:45:33Z</time>
      </trkpt>
      <trkpt lat="45.38976" lon="3.75922">
        <ele>655.59997558594</ele>
        <time>2013-04-08T16:45:35Z</time>
      </trkpt>
      <trkpt lat="45.38971" lon="3.75918">
        <ele>656.29998779297</ele>
        <time>2013-04-08T16:45:39Z</time>
      </trkpt>
      <trkpt lat="45.38966" lon="3.75917">
        <ele>656.90002441406</ele>
        <time>2013-04-08T16:45:42Z</time>
      </trkpt>
      <trkpt lat="45.38961" lon="3.7592">
        <ele>653.40002441406</ele>
        <time>2013-04-08T16:45:50Z</time>
      </trkpt>
      <trkpt lat="45.38953" lon="3.75919">
        <ele>654.59997558594</ele>
        <time>2013-04-08T16:45:56Z</time>
      </trkpt>
      <trkpt lat="45.38945" lon="3.75922">
        <ele>654.90002441406</ele>
        <time>2013-04-08T16:46:00Z</time>
      </trkpt>
      <trkpt lat="45.38941" lon="3.75915">
        <ele>656</ele>
        <time>2013-04-08T16:46:05Z</time>
      </trkpt>
      <trkpt lat="45.38935" lon="3.75914">
        <ele>655.5</ele>
        <time>2013-04-08T16:46:09Z</time>
      </trkpt>
      <trkpt lat="45.38928" lon="3.75916">
        <ele>659.40002441406</ele>
        <time>2013-04-08T16:46:17Z</time>
      </trkpt>
      <trkpt lat="45.38922" lon="3.75918">
        <ele>660.59997558594</ele>
        <time>2013-04-08T16:46:22Z</time>
      </trkpt>
      <trkpt lat="45.38916" lon="3.75917">
        <ele>661.29998779297</ele>
        <time>2013-04-08T16:46:32Z</time>
      </trkpt>
      <trkpt lat="45.38911" lon="3.75916">
        <ele>659.90002441406</ele>
        <time>2013-04-08T16:46:35Z</time>
      </trkpt>
      <trkpt lat="45.38905" lon="3.75918">
        <ele>659.09997558594</ele>
        <time>2013-04-08T16:46:37Z</time>
      </trkpt>
      <trkpt lat="45.38899" lon="3.75915">
        <ele>659</ele>
        <time>2013-04-08T16:46:43Z</time>
      </trkpt>
      <trkpt lat="45.38895" lon="3.75918">
        <ele>660.29998779297</ele>
        <time>2013-04-08T16:46:47Z</time>
      </trkpt>
      <trkpt lat="45.38886" lon="3.75919">
        <ele>659</ele>
        <time>2013-04-08T16:46:58Z</time>
      </trkpt>
      <trkpt lat="45.3888" lon="3.75918">
        <ele>661.09997558594</ele>
        <time>2013-04-08T16:47:01Z</time>
      </trkpt>
      <trkpt lat="45.38876" lon="3.75917">
        <ele>661.5</ele>
        <time>2013-04-08T16:47:03Z</time>
      </trkpt>
      <trkpt lat="45.38866" lon="3.75919">
        <ele>665.5</ele>
        <time>2013-04-08T16:47:08Z</time>
      </trkpt>
      <trkpt lat="45.38861" lon="3.75919">
        <ele>665.09997558594</ele>
        <time>2013-04-08T16:47:15Z</time>
      </trkpt>
      <trkpt lat="45.38857" lon="3.75915">
        <ele>663.70001220703</ele>
        <time>2013-04-08T16:47:19Z</time>
      </trkpt>
      <trkpt lat="45.38851" lon="3.75916">
        <ele>664.70001220703</ele>
        <time>2013-04-08T16:47:22Z</time>
      </trkpt>
      <trkpt lat="45.38846" lon="3.75913">
        <ele>664.79998779297</ele>
        <time>2013-04-08T16:47:27Z</time>
      </trkpt>
      <trkpt lat="45.38843" lon="3.75917">
        <ele>663.29998779297</ele>
        <time>2013-04-08T16:47:30Z</time>
      </trkpt>
      <trkpt lat="45.38831" lon="3.75914">
        <ele>666.5</ele>
        <time>2013-04-08T16:47:41Z</time>
      </trkpt>
      <trkpt lat="45.38826" lon="3.75917">
        <ele>667</ele>
        <time>2013-04-08T16:47:44Z</time>
      </trkpt>
      <trkpt lat="45.38821" lon="3.75915">
        <ele>664.59997558594</ele>
        <time>2013-04-08T16:47:48Z</time>
      </trkpt>
      <trkpt lat="45.38816" lon="3.75915">
        <ele>663.20001220703</ele>
        <time>2013-04-08T16:47:53Z</time>
      </trkpt>
      <trkpt lat="45.38811" lon="3.75913">
        <ele>663.90002441406</ele>
        <time>2013-04-08T16:47:58Z</time>
      </trkpt>
      <trkpt lat="45.38806" lon="3.75912">
        <ele>662.20001220703</ele>
        <time>2013-04-08T16:48:03Z</time>
      </trkpt>
      <trkpt lat="45.38801" lon="3.7591">
        <ele>662</ele>
        <time>2013-04-08T16:48:08Z</time>
      </trkpt>
      <trkpt lat="45.38796" lon="3.75908">
        <ele>663.09997558594</ele>
        <time>2013-04-08T16:48:13Z</time>
      </trkpt>
      <trkpt lat="45.38786" lon="3.75904">
        <ele>663</ele>
        <time>2013-04-08T16:48:20Z</time>
      </trkpt>
      <trkpt lat="45.38768" lon="3.75902">
        <ele>654.59997558594</ele>
        <time>2013-04-08T16:48:31Z</time>
      </trkpt>
      <trkpt lat="45.38766" lon="3.75896">
        <ele>653.59997558594</ele>
        <time>2013-04-08T16:48:33Z</time>
      </trkpt>
      <trkpt lat="45.38759" lon="3.75887">
        <ele>647.79998779297</ele>
        <time>2013-04-08T16:48:39Z</time>
      </trkpt>
      <trkpt lat="45.38758" lon="3.7588">
        <ele>648.40002441406</ele>
        <time>2013-04-08T16:48:42Z</time>
      </trkpt>
      <trkpt lat="45.38748" lon="3.7587">
        <ele>650.09997558594</ele>
        <time>2013-04-08T16:48:49Z</time>
      </trkpt>
      <trkpt lat="45.3874" lon="3.75862">
        <ele>647.79998779297</ele>
        <time>2013-04-08T16:48:51Z</time>
      </trkpt>
      <trkpt lat="45.38735" lon="3.75858">
        <ele>651.29998779297</ele>
        <time>2013-04-08T16:48:54Z</time>
      </trkpt>
      <trkpt lat="45.3873" lon="3.75854">
        <ele>653.59997558594</ele>
        <time>2013-04-08T16:48:56Z</time>
      </trkpt>
      <trkpt lat="45.38729" lon="3.75844">
        <ele>656.20001220703</ele>
        <time>2013-04-08T16:48:59Z</time>
      </trkpt>
      <trkpt lat="45.3872" lon="3.75831">
        <ele>665.40002441406</ele>
        <time>2013-04-08T16:49:03Z</time>
      </trkpt>
      <trkpt lat="45.38716" lon="3.75827">
        <ele>663</ele>
        <time>2013-04-08T16:49:07Z</time>
      </trkpt>
      <trkpt lat="45.3871" lon="3.75821">
        <ele>660.59997558594</ele>
        <time>2013-04-08T16:49:10Z</time>
      </trkpt>
      <trkpt lat="45.38706" lon="3.75817">
        <ele>661.20001220703</ele>
        <time>2013-04-08T16:49:13Z</time>
      </trkpt>
      <trkpt lat="45.38701" lon="3.75811">
        <ele>662</ele>
        <time>2013-04-08T16:49:16Z</time>
      </trkpt>
      <trkpt lat="45.38697" lon="3.75806">
        <ele>661.70001220703</ele>
        <time>2013-04-08T16:49:19Z</time>
      </trkpt>
      <trkpt lat="45.38694" lon="3.758">
        <ele>661.40002441406</ele>
        <time>2013-04-08T16:49:21Z</time>
      </trkpt>
      <trkpt lat="45.38691" lon="3.75795">
        <ele>661.40002441406</ele>
        <time>2013-04-08T16:49:23Z</time>
      </trkpt>
      <trkpt lat="45.38687" lon="3.75791">
        <ele>662.5</ele>
        <time>2013-04-08T16:49:27Z</time>
      </trkpt>
      <trkpt lat="45.38684" lon="3.75785">
        <ele>661.40002441406</ele>
        <time>2013-04-08T16:49:32Z</time>
      </trkpt>
      <trkpt lat="45.38679" lon="3.75786">
        <ele>659.40002441406</ele>
        <time>2013-04-08T16:49:37Z</time>
      </trkpt>
      <trkpt lat="45.38673" lon="3.75782">
        <ele>657.29998779297</ele>
        <time>2013-04-08T16:49:43Z</time>
      </trkpt>
      <trkpt lat="45.38669" lon="3.75776">
        <ele>658.09997558594</ele>
        <time>2013-04-08T16:49:48Z</time>
      </trkpt>
      <trkpt lat="45.38665" lon="3.75771">
        <ele>657.70001220703</ele>
        <time>2013-04-08T16:49:51Z</time>
      </trkpt>
      <trkpt lat="45.38661" lon="3.75766">
        <ele>655.90002441406</ele>
        <time>2013-04-08T16:49:57Z</time>
      </trkpt>
      <trkpt lat="45.38659" lon="3.7576">
        <ele>656.09997558594</ele>
        <time>2013-04-08T16:50:01Z</time>
      </trkpt>
      <trkpt lat="45.38655" lon="3.75755">
        <ele>656.29998779297</ele>
        <time>2013-04-08T16:50:05Z</time>
      </trkpt>
      <trkpt lat="45.38652" lon="3.75751">
        <ele>657</ele>
        <time>2013-04-08T16:50:10Z</time>
      </trkpt>
      <trkpt lat="45.38649" lon="3.75744">
        <ele>657.40002441406</ele>
        <time>2013-04-08T16:50:14Z</time>
      </trkpt>
      <trkpt lat="45.38643" lon="3.75741">
        <ele>657.09997558594</ele>
        <time>2013-04-08T16:50:17Z</time>
      </trkpt>
      <trkpt lat="45.38637" lon="3.75738">
        <ele>656.40002441406</ele>
        <time>2013-04-08T16:50:22Z</time>
      </trkpt>
      <trkpt lat="45.38634" lon="3.75733">
        <ele>656.40002441406</ele>
        <time>2013-04-08T16:50:26Z</time>
      </trkpt>
      <trkpt lat="45.38631" lon="3.75727">
        <ele>655.59997558594</ele>
        <time>2013-04-08T16:50:29Z</time>
      </trkpt>
      <trkpt lat="45.38625" lon="3.75725">
        <ele>655.70001220703</ele>
        <time>2013-04-08T16:50:33Z</time>
      </trkpt>
      <trkpt lat="45.38621" lon="3.7572">
        <ele>655.20001220703</ele>
        <time>2013-04-08T16:50:38Z</time>
      </trkpt>
      <trkpt lat="45.38615" lon="3.75719">
        <ele>655.59997558594</ele>
        <time>2013-04-08T16:50:42Z</time>
      </trkpt>
      <trkpt lat="45.38612" lon="3.75713">
        <ele>655.09997558594</ele>
        <time>2013-04-08T16:50:45Z</time>
      </trkpt>
      <trkpt lat="45.38607" lon="3.75709">
        <ele>660.29998779297</ele>
        <time>2013-04-08T16:50:51Z</time>
      </trkpt>
      <trkpt lat="45.38606" lon="3.75701">
        <ele>657.59997558594</ele>
        <time>2013-04-08T16:50:54Z</time>
      </trkpt>
      <trkpt lat="45.38602" lon="3.75697">
        <ele>656.09997558594</ele>
        <time>2013-04-08T16:50:57Z</time>
      </trkpt>
      <trkpt lat="45.38597" lon="3.75694">
        <ele>657.20001220703</ele>
        <time>2013-04-08T16:51:02Z</time>
      </trkpt>
      <trkpt lat="45.38594" lon="3.7569">
        <ele>655.90002441406</ele>
        <time>2013-04-08T16:51:06Z</time>
      </trkpt>
      <trkpt lat="45.38586" lon="3.75685">
        <ele>654.09997558594</ele>
        <time>2013-04-08T16:51:15Z</time>
      </trkpt>
      <trkpt lat="45.38582" lon="3.75681">
        <ele>653.5</ele>
        <time>2013-04-08T16:51:18Z</time>
      </trkpt>
      <trkpt lat="45.38578" lon="3.75679">
        <ele>654.20001220703</ele>
        <time>2013-04-08T16:51:20Z</time>
      </trkpt>
      <trkpt lat="45.38573" lon="3.75679">
        <ele>655.20001220703</ele>
        <time>2013-04-08T16:51:24Z</time>
      </trkpt>
      <trkpt lat="45.38569" lon="3.75675">
        <ele>653.40002441406</ele>
        <time>2013-04-08T16:51:29Z</time>
      </trkpt>
      <trkpt lat="45.38564" lon="3.75669">
        <ele>654.5</ele>
        <time>2013-04-08T16:51:32Z</time>
      </trkpt>
      <trkpt lat="45.38559" lon="3.75666">
        <ele>657.40002441406</ele>
        <time>2013-04-08T16:51:36Z</time>
      </trkpt>
      <trkpt lat="45.38551" lon="3.75667">
        <ele>658.5</ele>
        <time>2013-04-08T16:51:39Z</time>
      </trkpt>
      <trkpt lat="45.38542" lon="3.75668">
        <ele>656</ele>
        <time>2013-04-08T16:51:43Z</time>
      </trkpt>
      <trkpt lat="45.38531" lon="3.7567">
        <ele>656.20001220703</ele>
        <time>2013-04-08T16:51:49Z</time>
      </trkpt>
      <trkpt lat="45.38518" lon="3.75664">
        <ele>656.90002441406</ele>
        <time>2013-04-08T16:51:56Z</time>
      </trkpt>
      <trkpt lat="45.38517" lon="3.75655">
        <ele>657</ele>
        <time>2013-04-08T16:51:59Z</time>
      </trkpt>
      <trkpt lat="45.38512" lon="3.7565">
        <ele>657.79998779297</ele>
        <time>2013-04-08T16:52:02Z</time>
      </trkpt>
      <trkpt lat="45.38512" lon="3.75641">
        <ele>653</ele>
        <time>2013-04-08T16:52:05Z</time>
      </trkpt>
      <trkpt lat="45.38511" lon="3.75633">
        <ele>651.40002441406</ele>
        <time>2013-04-08T16:52:08Z</time>
      </trkpt>
      <trkpt lat="45.3851" lon="3.75623">
        <ele>650.40002441406</ele>
        <time>2013-04-08T16:52:13Z</time>
      </trkpt>
      <trkpt lat="45.3851" lon="3.75616">
        <ele>649.90002441406</ele>
        <time>2013-04-08T16:52:16Z</time>
      </trkpt>
      <trkpt lat="45.38506" lon="3.75607">
        <ele>651.5</ele>
        <time>2013-04-08T16:52:20Z</time>
      </trkpt>
      <trkpt lat="45.38505" lon="3.75597">
        <ele>653.70001220703</ele>
        <time>2013-04-08T16:52:23Z</time>
      </trkpt>
      <trkpt lat="45.38503" lon="3.7559">
        <ele>656.29998779297</ele>
        <time>2013-04-08T16:52:26Z</time>
      </trkpt>
      <trkpt lat="45.38501" lon="3.75582">
        <ele>655.79998779297</ele>
        <time>2013-04-08T16:52:29Z</time>
      </trkpt>
      <trkpt lat="45.38499" lon="3.75575">
        <ele>658.20001220703</ele>
        <time>2013-04-08T16:52:34Z</time>
      </trkpt>
      <trkpt lat="45.38496" lon="3.75568">
        <ele>658.59997558594</ele>
        <time>2013-04-08T16:52:39Z</time>
      </trkpt>
      <trkpt lat="45.38495" lon="3.75561">
        <ele>656.40002441406</ele>
        <time>2013-04-08T16:52:43Z</time>
      </trkpt>
      <trkpt lat="45.38494" lon="3.75552">
        <ele>657.29998779297</ele>
        <time>2013-04-08T16:52:47Z</time>
      </trkpt>
      <trkpt lat="45.38495" lon="3.75542">
        <ele>654.40002441406</ele>
        <time>2013-04-08T16:52:54Z</time>
      </trkpt>
      <trkpt lat="45.38493" lon="3.75534">
        <ele>655.90002441406</ele>
        <time>2013-04-08T16:52:57Z</time>
      </trkpt>
      <trkpt lat="45.38493" lon="3.75527">
        <ele>656.90002441406</ele>
        <time>2013-04-08T16:53:02Z</time>
      </trkpt>
      <trkpt lat="45.3849" lon="3.75522">
        <ele>658.40002441406</ele>
        <time>2013-04-08T16:53:09Z</time>
      </trkpt>
      <trkpt lat="45.3849" lon="3.75514">
        <ele>658.29998779297</ele>
        <time>2013-04-08T16:53:14Z</time>
      </trkpt>
      <trkpt lat="45.38488" lon="3.75508">
        <ele>657.20001220703</ele>
        <time>2013-04-08T16:53:18Z</time>
      </trkpt>
      <trkpt lat="45.38485" lon="3.75502">
        <ele>656.5</ele>
        <time>2013-04-08T16:53:22Z</time>
      </trkpt>
      <trkpt lat="45.38483" lon="3.75494">
        <ele>656.79998779297</ele>
        <time>2013-04-08T16:53:26Z</time>
      </trkpt>
      <trkpt lat="45.38483" lon="3.75486">
        <ele>659</ele>
        <time>2013-04-08T16:53:29Z</time>
      </trkpt>
      <trkpt lat="45.3848" lon="3.75479">
        <ele>657</ele>
        <time>2013-04-08T16:53:35Z</time>
      </trkpt>
      <trkpt lat="45.38477" lon="3.75471">
        <ele>655.5</ele>
        <time>2013-04-08T16:53:41Z</time>
      </trkpt>
      <trkpt lat="45.38477" lon="3.75464">
        <ele>656.59997558594</ele>
        <time>2013-04-08T16:53:43Z</time>
      </trkpt>
      <trkpt lat="45.38474" lon="3.75459">
        <ele>655.29998779297</ele>
        <time>2013-04-08T16:53:46Z</time>
      </trkpt>
      <trkpt lat="45.38478" lon="3.75456">
        <ele>654.70001220703</ele>
        <time>2013-04-08T16:53:48Z</time>
      </trkpt>
      <trkpt lat="45.38474" lon="3.75451">
        <ele>655.5</ele>
        <time>2013-04-08T16:53:54Z</time>
      </trkpt>
      <trkpt lat="45.38472" lon="3.75445">
        <ele>656.79998779297</ele>
        <time>2013-04-08T16:53:58Z</time>
      </trkpt>
      <trkpt lat="45.38471" lon="3.75438">
        <ele>658.79998779297</ele>
        <time>2013-04-08T16:54:01Z</time>
      </trkpt>
      <trkpt lat="45.38469" lon="3.7543">
        <ele>657.29998779297</ele>
        <time>2013-04-08T16:54:04Z</time>
      </trkpt>
      <trkpt lat="45.38466" lon="3.75423">
        <ele>656.5</ele>
        <time>2013-04-08T16:54:09Z</time>
      </trkpt>
      <trkpt lat="45.38461" lon="3.75418">
        <ele>655.79998779297</ele>
        <time>2013-04-08T16:54:14Z</time>
      </trkpt>
      <trkpt lat="45.38459" lon="3.75411">
        <ele>656.40002441406</ele>
        <time>2013-04-08T16:54:19Z</time>
      </trkpt>
      <trkpt lat="45.38458" lon="3.75403">
        <ele>654.79998779297</ele>
        <time>2013-04-08T16:54:24Z</time>
      </trkpt>
      <trkpt lat="45.38455" lon="3.75397">
        <ele>654.79998779297</ele>
        <time>2013-04-08T16:54:27Z</time>
      </trkpt>
      <trkpt lat="45.38454" lon="3.75388">
        <ele>653.20001220703</ele>
        <time>2013-04-08T16:54:31Z</time>
      </trkpt>
      <trkpt lat="45.38451" lon="3.75383">
        <ele>651.5</ele>
        <time>2013-04-08T16:54:34Z</time>
      </trkpt>
      <trkpt lat="45.38449" lon="3.75376">
        <ele>649.59997558594</ele>
        <time>2013-04-08T16:54:38Z</time>
      </trkpt>
      <trkpt lat="45.38447" lon="3.75369">
        <ele>648.79998779297</ele>
        <time>2013-04-08T16:54:42Z</time>
      </trkpt>
      <trkpt lat="45.38444" lon="3.75363">
        <ele>649.97424316406</ele>
        <time>2013-04-08T16:54:43Z</time>
      </trkpt>
      <trkpt lat="45.38441" lon="3.75351">
        <ele>651.5</ele>
        <time>2013-04-08T16:54:47Z</time>
      </trkpt>
      <trkpt lat="45.38439" lon="3.75341">
        <ele>651.70001220703</ele>
        <time>2013-04-08T16:54:51Z</time>
      </trkpt>
      <trkpt lat="45.38437" lon="3.75332">
        <ele>651.59997558594</ele>
        <time>2013-04-08T16:54:54Z</time>
      </trkpt>
      <trkpt lat="45.38435" lon="3.75325">
        <ele>653</ele>
        <time>2013-04-08T16:54:57Z</time>
      </trkpt>
      <trkpt lat="45.38432" lon="3.75318">
        <ele>652.90002441406</ele>
        <time>2013-04-08T16:55:00Z</time>
      </trkpt>
      <trkpt lat="45.38425" lon="3.75315">
        <ele>652.90002441406</ele>
        <time>2013-04-08T16:55:04Z</time>
      </trkpt>
      <trkpt lat="45.38423" lon="3.75309">
        <ele>652.29998779297</ele>
        <time>2013-04-08T16:55:07Z</time>
      </trkpt>
      <trkpt lat="45.38425" lon="3.75301">
        <ele>652.5</ele>
        <time>2013-04-08T16:55:09Z</time>
      </trkpt>
      <trkpt lat="45.38426" lon="3.75293">
        <ele>654</ele>
        <time>2013-04-08T16:55:11Z</time>
      </trkpt>
      <trkpt lat="45.3842" lon="3.7529">
        <ele>654.20001220703</ele>
        <time>2013-04-08T16:55:13Z</time>
      </trkpt>
      <trkpt lat="45.38419" lon="3.75284">
        <ele>655.20001220703</ele>
        <time>2013-04-08T16:55:16Z</time>
      </trkpt>
      <trkpt lat="45.38417" lon="3.75275">
        <ele>655.29998779297</ele>
        <time>2013-04-08T16:55:19Z</time>
      </trkpt>
      <trkpt lat="45.38416" lon="3.75268">
        <ele>654.79998779297</ele>
        <time>2013-04-08T16:55:22Z</time>
      </trkpt>
      <trkpt lat="45.38413" lon="3.7526">
        <ele>655.5</ele>
        <time>2013-04-08T16:55:30Z</time>
      </trkpt>
      <trkpt lat="45.38412" lon="3.75253">
        <ele>654.70001220703</ele>
        <time>2013-04-08T16:55:34Z</time>
      </trkpt>
      <trkpt lat="45.38413" lon="3.75244">
        <ele>653.90002441406</ele>
        <time>2013-04-08T16:55:37Z</time>
      </trkpt>
      <trkpt lat="45.38412" lon="3.75237">
        <ele>655.29998779297</ele>
        <time>2013-04-08T16:55:43Z</time>
      </trkpt>
      <trkpt lat="45.38411" lon="3.75229">
        <ele>658.09997558594</ele>
        <time>2013-04-08T16:55:47Z</time>
      </trkpt>
      <trkpt lat="45.38408" lon="3.7522">
        <ele>654.29998779297</ele>
        <time>2013-04-08T16:55:55Z</time>
      </trkpt>
      <trkpt lat="45.38404" lon="3.75215">
        <ele>652.90002441406</ele>
        <time>2013-04-08T16:55:59Z</time>
      </trkpt>
      <trkpt lat="45.38401" lon="3.7521">
        <ele>654</ele>
        <time>2013-04-08T16:56:04Z</time>
      </trkpt>
      <trkpt lat="45.38397" lon="3.75206">
        <ele>654.70001220703</ele>
        <time>2013-04-08T16:56:07Z</time>
      </trkpt>
      <trkpt lat="45.38395" lon="3.75199">
        <ele>654.79998779297</ele>
        <time>2013-04-08T16:56:12Z</time>
      </trkpt>
      <trkpt lat="45.38393" lon="3.75192">
        <ele>656.09997558594</ele>
        <time>2013-04-08T16:56:17Z</time>
      </trkpt>
      <trkpt lat="45.38392" lon="3.75185">
        <ele>658.40002441406</ele>
        <time>2013-04-08T16:56:21Z</time>
      </trkpt>
      <trkpt lat="45.3839" lon="3.75179">
        <ele>658.90002441406</ele>
        <time>2013-04-08T16:56:26Z</time>
      </trkpt>
      <trkpt lat="45.38395" lon="3.7517">
        <ele>657.79998779297</ele>
        <time>2013-04-08T16:56:33Z</time>
      </trkpt>
      <trkpt lat="45.38391" lon="3.75163">
        <ele>655.09997558594</ele>
        <time>2013-04-08T16:56:37Z</time>
      </trkpt>
      <trkpt lat="45.38385" lon="3.75159">
        <ele>654.79998779297</ele>
        <time>2013-04-08T16:56:41Z</time>
      </trkpt>
    </trkseg>
  </trk>
</gpx>